createdAt,value
2023-04-27T00:01:52.977Z,100413.22
2023-04-27T00:04:20.680Z,100410.16
2023-04-27T00:06:48.785Z,100406.44
2023-04-27T00:09:16.213Z,100408.03
2023-04-27T00:11:44.433Z,100401.00
2023-04-27T00:14:13.518Z,100400.28
2023-04-27T00:16:41.376Z,100410.09
2023-04-27T00:19:08.841Z,100400.63
2023-04-27T00:21:36.515Z,100407.75
2023-04-27T00:24:04.269Z,100399.94
2023-04-27T00:26:32.066Z,100400.06
2023-04-27T00:28:59.552Z,100405.50
2023-04-27T00:31:28.861Z,100406.47
2023-04-27T00:33:56.262Z,100406.94
2023-04-27T00:36:23.990Z,100402.97
2023-04-27T00:38:51.433Z,100410.81
2023-04-27T00:41:19.433Z,100405.97
2023-04-27T00:43:46.912Z,100410.56
2023-04-27T00:46:15.599Z,100409.47
2023-04-27T00:48:45.047Z,100403.09
2023-04-27T00:51:13.230Z,100400.44
2023-04-27T00:53:41.542Z,100406.69
2023-04-27T00:56:09.349Z,100401.63
2023-04-27T00:58:36.579Z,100403.56
2023-04-27T01:01:04.815Z,100406.09
2023-04-27T01:03:32.886Z,100404.75
2023-04-27T01:06:02.256Z,100404.28
2023-04-27T01:08:29.651Z,100399.06
2023-04-27T01:10:57.773Z,100406.09
2023-04-27T01:13:25.293Z,100412.84
2023-04-27T01:15:53.068Z,100410.16
2023-04-27T01:18:20.461Z,100412.97
2023-04-27T01:20:48.148Z,100407.66
2023-04-27T01:23:17.495Z,100406.59
2023-04-27T01:25:45.500Z,100414.06
2023-04-27T01:28:12.935Z,100409.69
2023-04-27T01:30:40.656Z,100414.78
2023-04-27T01:33:08.049Z,100416.56
2023-04-27T01:35:35.717Z,100410.16
2023-04-27T01:38:03.193Z,100412.47
2023-04-27T01:40:32.203Z,100417.91
2023-04-27T01:42:59.630Z,100415.47
2023-04-27T01:45:27.385Z,100415.22
2023-04-27T01:47:54.756Z,100414.75
2023-04-27T01:50:22.705Z,100417.75
2023-04-27T01:52:50.125Z,100422.81
2023-04-27T01:55:17.949Z,100416.44
2023-04-27T01:57:46.710Z,100419.81
2023-04-27T02:00:14.883Z,100422.84
2023-04-27T02:02:42.399Z,100423.34
2023-04-27T02:05:10.196Z,100419.88
2023-04-27T02:07:37.680Z,100423.97
2023-04-27T02:10:07.021Z,100423.97
2023-04-27T02:12:34.306Z,100425.75
2023-04-27T02:15:03.822Z,100421.38
2023-04-27T02:17:31.055Z,100431.47
2023-04-27T02:19:58.704Z,100432.44
2023-04-27T02:22:26.058Z,100420.78
2023-04-27T02:24:54.139Z,100430.16
2023-04-27T02:27:21.460Z,100425.13
2023-04-27T02:29:49.591Z,100430.44
2023-04-27T02:32:18.794Z,100432.28
2023-04-27T02:34:46.462Z,100432.56
2023-04-27T02:37:13.746Z,100436.78
2023-04-27T02:39:41.441Z,100431.94
2023-04-27T02:42:08.811Z,100435.72
2023-04-27T02:44:36.584Z,100439.84
2023-04-27T02:47:04.006Z,100435.00
2023-04-27T02:49:33.180Z,100436.31
2023-04-27T02:52:00.583Z,100431.84
2023-04-27T02:54:28.578Z,100433.63
2023-04-27T02:56:55.866Z,100430.50
2023-04-27T02:59:23.703Z,100428.31
2023-04-27T03:01:51.262Z,100435.94
2023-04-27T03:04:19.224Z,100439.00
2023-04-27T03:06:48.133Z,100436.94
2023-04-27T03:09:16.111Z,100434.56
2023-04-27T03:11:44.058Z,100436.72
2023-04-27T03:14:11.812Z,100438.84
2023-04-27T03:16:39.394Z,100435.38
2023-04-27T03:19:07.323Z,100437.75
2023-04-27T03:21:34.691Z,100440.84
2023-04-27T03:24:04.618Z,100440.22
2023-04-27T03:26:32.137Z,100440.09
2023-04-27T03:29:00.314Z,100442.94
2023-04-27T03:31:27.761Z,100448.50
2023-04-27T03:33:55.557Z,100449.31
2023-04-27T03:36:22.980Z,100452.06
2023-04-27T03:38:50.694Z,100454.50
2023-04-27T03:41:19.274Z,100454.63
2023-04-27T03:43:47.154Z,100452.91
2023-04-27T03:46:14.699Z,100459.34
2023-04-27T03:48:42.328Z,100462.00
2023-04-27T03:51:09.707Z,100457.72
2023-04-27T03:53:37.544Z,100465.38
2023-04-27T03:56:05.664Z,100462.81
2023-04-27T03:58:34.985Z,100467.00
2023-04-27T04:01:02.288Z,100467.06
2023-04-27T04:03:30.230Z,100475.50
2023-04-27T04:05:57.785Z,100476.84
2023-04-27T04:08:25.505Z,100476.00
2023-04-27T04:10:52.734Z,100470.63
2023-04-27T04:13:20.675Z,100470.75
2023-04-27T04:15:49.608Z,100480.03
2023-04-27T04:18:17.496Z,100480.41
2023-04-27T04:20:44.862Z,100477.69
2023-04-27T04:23:12.846Z,100488.16
2023-04-27T04:25:40.102Z,100489.84
2023-04-27T04:28:07.916Z,100492.41
2023-04-27T04:30:35.187Z,100497.69
2023-04-27T04:33:04.338Z,100501.16
2023-04-27T04:35:31.705Z,100503.53
2023-04-27T04:37:59.458Z,100504.91
2023-04-27T04:40:27.360Z,100510.16
2023-04-27T04:42:55.106Z,100510.50
2023-04-27T04:45:22.422Z,100515.81
2023-04-27T04:47:50.274Z,100517.16
2023-04-27T04:50:19.270Z,100523.19
2023-04-27T04:52:47.338Z,100524.75
2023-04-27T04:55:15.452Z,100524.25
2023-04-27T04:57:43.124Z,100523.03
2023-04-27T05:00:11.515Z,100519.44
2023-04-27T05:02:39.706Z,100531.66
2023-04-27T05:05:08.069Z,100528.28
2023-04-27T05:07:37.255Z,100529.50
2023-04-27T05:10:05.333Z,100531.06
2023-04-27T05:12:32.964Z,100536.38
2023-04-27T05:15:00.354Z,100536.72
2023-04-27T05:17:28.524Z,100538.63
2023-04-27T05:19:55.937Z,100546.63
2023-04-27T05:22:23.698Z,100536.66
2023-04-27T05:24:52.465Z,100545.22
2023-04-27T05:27:20.257Z,100541.34
2023-04-27T05:29:47.571Z,100542.19
2023-04-27T05:32:15.375Z,100541.00
2023-04-27T05:34:42.658Z,100543.34
2023-04-27T05:37:10.489Z,100540.22
2023-04-27T05:39:39.200Z,100543.09
2023-04-27T05:42:08.456Z,100542.00
2023-04-27T05:44:35.945Z,100548.13
2023-04-27T05:47:03.703Z,100546.22
2023-04-27T05:49:31.177Z,100550.09
2023-04-27T05:51:58.981Z,100551.56
2023-04-27T05:54:26.301Z,100557.19
2023-04-27T05:56:54.142Z,100559.72
2023-04-27T05:59:23.079Z,100560.69
2023-04-27T06:01:50.932Z,100564.97
2023-04-27T06:04:18.589Z,100560.44
2023-04-27T06:06:46.554Z,100561.94
2023-04-27T06:09:14.131Z,100566.44
2023-04-27T06:11:42.006Z,100562.31
2023-04-27T06:14:09.374Z,100552.59
2023-04-27T06:16:38.613Z,100555.53
2023-04-27T06:19:07.726Z,100565.59
2023-04-27T06:21:36.052Z,100564.03
2023-04-27T06:24:03.525Z,100562.00
2023-04-27T06:26:31.189Z,100565.91
2023-04-27T06:28:58.692Z,100564.53
2023-04-27T06:31:26.866Z,100559.88
2023-04-27T06:33:55.826Z,100563.97
2023-04-27T06:36:26.290Z,100562.19
2023-04-27T06:38:53.810Z,100565.34
2023-04-27T06:41:21.629Z,100563.41
2023-04-27T06:43:49.027Z,100564.16
2023-04-27T06:46:16.813Z,100562.97
2023-04-27T06:48:44.262Z,100558.59
2023-04-27T06:51:13.632Z,100555.28
2023-04-27T06:53:41.242Z,100560.75
2023-04-27T06:56:11.909Z,100561.56
2023-04-27T06:58:39.343Z,100556.06
2023-04-27T07:01:07.042Z,100547.09
2023-04-27T07:03:35.570Z,100554.91
2023-04-27T07:06:03.736Z,100558.97
2023-04-27T07:08:32.619Z,100553.41
2023-04-27T07:11:00.512Z,100554.03
2023-04-27T07:13:27.778Z,100552.22
2023-04-27T07:15:56.211Z,100558.16
2023-04-27T07:18:23.607Z,100553.22
2023-04-27T07:20:51.521Z,100558.41
2023-04-27T07:23:18.786Z,100545.50
2023-04-27T07:25:48.050Z,100556.84
2023-04-27T07:28:15.518Z,100558.59
2023-04-27T07:30:43.379Z,100552.03
2023-04-27T07:33:10.889Z,100552.38
2023-04-27T07:35:39.135Z,100557.44
2023-04-27T07:38:06.591Z,100556.06
2023-04-27T07:40:34.450Z,100554.75
2023-04-27T07:43:03.261Z,100556.59
2023-04-27T07:45:31.007Z,100559.13
2023-04-27T07:47:58.917Z,100555.38
2023-04-27T07:50:27.023Z,100559.25
2023-04-27T07:52:54.407Z,100559.06
2023-04-27T07:55:22.549Z,100566.97
2023-04-27T07:57:49.819Z,100565.84
2023-04-27T08:00:19.796Z,100564.72
2023-04-27T08:02:47.382Z,100557.88
2023-04-27T08:05:16.021Z,100560.06
2023-04-27T08:07:44.838Z,100558.00
2023-04-27T08:10:13.232Z,100557.88
2023-04-27T08:12:40.726Z,100556.22
2023-04-27T08:15:11.434Z,100556.91
2023-04-27T08:17:40.300Z,100559.78
2023-04-27T08:20:09.147Z,100557.03
2023-04-27T08:22:36.353Z,100558.25
2023-04-27T08:25:04.759Z,100560.00
2023-04-27T08:27:32.162Z,100564.91
2023-04-27T08:30:00.331Z,100568.59
2023-04-27T08:32:27.628Z,100568.75
2023-04-27T08:34:56.758Z,100565.34
2023-04-27T08:37:23.972Z,100563.28
2023-04-27T08:39:51.611Z,100574.75
2023-04-27T08:42:18.862Z,100572.81
2023-04-27T08:44:46.663Z,100574.47
2023-04-27T08:47:14.150Z,100573.13
2023-04-27T08:49:41.880Z,100575.56
2023-04-27T08:52:14.592Z,100579.91
2023-04-27T08:54:42.581Z,100565.09
2023-04-27T08:57:11.058Z,100575.31
2023-04-27T08:59:39.196Z,100574.69
2023-04-27T09:02:07.318Z,100570.91
2023-04-27T09:04:38.636Z,100574.13
2023-04-27T09:07:15.286Z,100570.63
2023-04-27T09:09:43.551Z,100568.53
2023-04-27T09:12:18.099Z,100570.38
2023-04-27T09:14:56.918Z,100568.56
2023-04-27T09:17:27.185Z,100566.00
2023-04-27T09:20:07.026Z,100569.53
2023-04-27T09:22:44.205Z,100562.22
2023-04-27T09:25:22.884Z,100566.13
2023-04-27T09:27:50.391Z,100568.22
2023-04-27T09:30:18.833Z,100574.31
2023-04-27T09:32:53.335Z,100567.91
2023-04-27T09:35:23.719Z,100576.06
2023-04-27T09:37:52.987Z,100576.81
2023-04-27T09:40:22.083Z,100573.03
2023-04-27T09:42:50.077Z,100580.56
2023-04-27T09:45:18.438Z,100584.84
2023-04-27T09:47:46.330Z,100585.03
2023-04-27T09:50:14.799Z,100568.75
2023-04-27T09:52:42.527Z,100573.72
2023-04-27T09:55:16.298Z,100574.16
2023-04-27T09:57:53.828Z,100574.63
2023-04-27T10:00:35.175Z,100567.56
2023-04-27T10:03:15.257Z,100573.59
2023-04-27T10:06:17.954Z,100572.72
2023-04-27T10:08:45.534Z,100564.00
2023-04-27T10:11:18.079Z,100577.03
2023-04-27T10:13:52.436Z,100571.50
2023-04-27T10:16:22.490Z,100570.66
2023-04-27T10:18:54.678Z,100574.53
2023-04-27T10:21:23.081Z,100570.22
2023-04-27T10:23:51.613Z,100565.78
2023-04-27T10:26:25.923Z,100563.38
2023-04-27T10:29:05.390Z,100566.34
2023-04-27T10:31:33.471Z,100568.84
2023-04-27T10:34:08.838Z,100564.56
2023-04-27T10:36:37.592Z,100569.81
2023-04-27T10:39:15.206Z,100568.16
2023-04-27T10:41:50.708Z,100566.22
2023-04-27T10:44:18.372Z,100569.69
2023-04-27T10:46:53.282Z,100571.97
2023-04-27T10:49:21.413Z,100571.88
2023-04-27T10:51:51.528Z,100574.09
2023-04-27T10:54:19.064Z,100577.97
2023-04-27T10:56:46.879Z,100568.69
2023-04-27T10:59:15.736Z,100571.22
2023-04-27T11:01:48.190Z,100579.06
2023-04-27T11:04:15.620Z,100581.41
2023-04-27T11:06:44.838Z,100583.84
2023-04-27T11:09:12.250Z,100581.16
2023-04-27T11:11:44.526Z,100578.47
2023-04-27T11:14:19.768Z,100586.28
2023-04-27T11:16:47.900Z,100580.94
2023-04-27T11:19:15.740Z,100579.03
2023-04-27T11:21:44.333Z,100580.25
2023-04-27T11:24:13.867Z,100582.22
2023-04-27T11:26:42.973Z,100582.63
2023-04-27T11:29:10.902Z,100592.84
2023-04-27T11:31:41.802Z,100583.50
2023-04-27T11:34:09.569Z,100596.34
2023-04-27T11:36:37.516Z,100593.50
2023-04-27T11:39:05.063Z,100595.47
2023-04-27T11:41:36.832Z,100592.75
2023-04-27T11:44:05.896Z,100599.66
2023-04-27T11:46:34.763Z,100598.47
2023-04-27T11:49:04.730Z,100598.16
2023-04-27T11:51:33.498Z,100597.97
2023-04-27T11:54:04.693Z,100595.50
2023-04-27T11:56:36.284Z,100594.09
2023-04-27T11:59:03.993Z,100594.09
2023-04-27T12:01:38.030Z,100592.94
2023-04-27T12:04:07.398Z,100582.66
2023-04-27T12:06:35.482Z,100587.94
2023-04-27T12:09:02.914Z,100595.16
2023-04-27T12:11:30.786Z,100586.22
2023-04-27T12:13:58.142Z,100582.50
2023-04-27T12:16:25.960Z,100583.38
2023-04-27T12:18:53.350Z,100587.31
2023-04-27T12:21:22.634Z,100586.50
2023-04-27T12:23:50.056Z,100578.84
2023-04-27T12:26:18.040Z,100577.06
2023-04-27T12:28:45.302Z,100583.69
2023-04-27T12:31:15.748Z,100581.28
2023-04-27T12:33:45.809Z,100576.81
2023-04-27T12:36:13.562Z,100581.69
2023-04-27T12:38:42.305Z,100581.75
2023-04-27T12:41:10.034Z,100583.06
2023-04-27T12:43:37.506Z,100590.16
2023-04-27T12:46:05.308Z,100577.00
2023-04-27T12:48:32.735Z,100582.72
2023-04-27T12:51:00.433Z,100592.94
2023-04-27T12:53:28.459Z,100585.41
2023-04-27T12:55:57.633Z,100587.59
2023-04-27T12:58:24.965Z,100582.91
2023-04-27T13:00:52.634Z,100575.88
2023-04-27T13:03:20.238Z,100587.88
2023-04-27T13:05:48.092Z,100585.69
2023-04-27T13:08:15.582Z,100580.31
2023-04-27T13:10:43.390Z,100581.72
2023-04-27T13:13:12.229Z,100585.88
2023-04-27T13:15:39.933Z,100573.72
2023-04-27T13:18:07.524Z,100589.59
2023-04-27T13:20:35.342Z,100588.25
2023-04-27T13:23:04.238Z,100580.81
2023-04-27T13:25:31.948Z,100594.88
2023-04-27T13:27:59.318Z,100594.38
2023-04-27T13:30:28.784Z,100587.47
2023-04-27T13:33:01.924Z,100586.44
2023-04-27T13:35:38.475Z,100588.38
2023-04-27T13:38:06.040Z,100584.47
2023-04-27T13:40:34.195Z,100589.63
2023-04-27T13:43:01.694Z,100583.13
2023-04-27T13:45:30.789Z,100584.78
2023-04-27T13:47:58.267Z,100592.81
2023-04-27T13:50:26.080Z,100596.50
2023-04-27T13:52:53.566Z,100593.25
2023-04-27T13:55:21.437Z,100591.25
2023-04-27T13:57:48.925Z,100596.63
2023-04-27T14:00:17.236Z,100594.19
2023-04-27T14:02:46.174Z,100583.50
2023-04-27T14:05:13.934Z,100585.06
2023-04-27T14:07:41.474Z,100585.50
2023-04-27T14:10:09.830Z,100581.72
2023-04-27T14:12:37.334Z,100576.19
2023-04-27T14:15:05.869Z,100584.94
2023-04-27T14:17:33.311Z,100579.91
2023-04-27T14:20:02.677Z,100590.94
2023-04-27T14:22:30.379Z,100586.34
2023-04-27T14:24:58.277Z,100576.16
2023-04-27T14:27:25.916Z,100574.81
2023-04-27T14:29:53.678Z,100573.63
2023-04-27T14:32:21.322Z,100577.72
2023-04-27T14:34:49.272Z,100574.84
2023-04-27T14:37:17.962Z,100582.00
2023-04-27T14:39:46.284Z,100583.31
2023-04-27T14:42:13.724Z,100578.97
2023-04-27T14:44:41.531Z,100582.84
2023-04-27T14:47:08.932Z,100579.44
2023-04-27T14:49:36.661Z,100584.50
2023-04-27T14:52:03.968Z,100581.13
2023-04-27T14:54:33.266Z,100577.56
2023-04-27T14:57:00.645Z,100580.56
2023-04-27T14:59:28.699Z,100583.44
2023-04-27T15:01:56.069Z,100578.19
2023-04-27T15:04:24.146Z,100572.78
2023-04-27T15:06:51.637Z,100573.06
2023-04-27T15:09:19.557Z,100584.66
2023-04-27T15:11:48.342Z,100572.66
2023-04-27T15:14:16.235Z,100577.09
2023-04-27T15:16:43.607Z,100575.22
2023-04-27T15:19:11.674Z,100572.66
2023-04-27T15:21:38.940Z,100580.94
2023-04-27T15:24:06.859Z,100572.47
2023-04-27T15:26:34.354Z,100585.84
2023-04-27T15:29:04.204Z,100582.59
2023-04-27T15:31:31.772Z,100576.78
2023-04-27T15:33:59.436Z,100585.22
2023-04-27T15:36:26.820Z,100578.50
2023-04-27T15:38:54.837Z,100576.00
2023-04-27T15:41:22.254Z,100585.59
2023-04-27T15:43:51.438Z,100582.44
2023-04-27T15:46:20.188Z,100583.91
2023-04-27T15:48:48.036Z,100585.75
2023-04-27T15:51:15.309Z,100584.91
2023-04-27T15:53:43.037Z,100587.25
2023-04-27T15:56:10.534Z,100581.09
2023-04-27T15:58:38.178Z,100580.44
2023-04-27T16:01:05.613Z,100579.50
2023-04-27T16:03:35.023Z,100581.81
2023-04-27T16:06:02.608Z,100582.97
2023-04-27T16:08:30.376Z,100578.78
2023-04-27T16:10:57.651Z,100577.25
2023-04-27T16:13:25.502Z,100578.34
2023-04-27T16:15:52.934Z,100582.41
2023-04-27T16:18:20.577Z,100579.22
2023-04-27T16:20:49.382Z,100580.03
2023-04-27T16:23:17.185Z,100580.13
2023-04-27T16:25:44.558Z,100582.50
2023-04-27T16:28:12.322Z,100579.59
2023-04-27T16:30:39.756Z,100583.22
2023-04-27T16:33:07.594Z,100578.66
2023-04-27T16:35:35.174Z,100576.38
2023-04-27T16:38:04.298Z,100581.06
2023-04-27T16:40:31.576Z,100587.31
2023-04-27T16:42:59.340Z,100580.47
2023-04-27T16:45:26.721Z,100580.31
2023-04-27T16:47:54.423Z,100575.66
2023-04-27T16:50:21.965Z,100576.84
2023-04-27T16:52:49.862Z,100579.84
2023-04-27T16:55:18.748Z,100580.31
2023-04-27T16:57:46.483Z,100582.81
2023-04-27T17:00:14.867Z,100581.06
2023-04-27T17:02:43.965Z,100584.44
2023-04-27T17:05:11.936Z,100581.56
2023-04-27T17:07:39.722Z,100588.34
2023-04-27T17:10:08.452Z,100577.34
2023-04-27T17:12:38.113Z,100585.25
2023-04-27T17:15:07.012Z,100579.84
2023-04-27T17:17:35.306Z,100579.50
2023-04-27T17:20:02.612Z,100585.47
2023-04-27T17:22:30.299Z,100577.91
2023-04-27T17:24:57.624Z,100577.78
2023-04-27T17:27:25.339Z,100580.13
2023-04-27T17:29:54.859Z,100577.75
2023-04-27T17:32:22.697Z,100576.63
2023-04-27T17:34:50.064Z,100570.13
2023-04-27T17:37:17.683Z,100579.56
2023-04-27T17:39:44.989Z,100575.94
2023-04-27T17:42:12.857Z,100578.41
2023-04-27T17:44:40.485Z,100577.78
2023-04-27T17:47:09.806Z,100576.56
2023-04-27T17:49:37.166Z,100574.88
2023-04-27T17:52:05.436Z,100574.63
2023-04-27T17:54:32.836Z,100574.63
2023-04-27T17:57:00.545Z,100576.47
2023-04-27T17:59:27.878Z,100587.44
2023-04-27T18:01:55.768Z,100579.91
2023-04-27T18:04:24.689Z,100586.97
2023-04-27T18:06:52.551Z,100583.81
2023-04-27T18:09:19.918Z,100578.41
2023-04-27T18:11:47.834Z,100590.41
2023-04-27T18:14:15.277Z,100586.38
2023-04-27T18:16:42.993Z,100597.81
2023-04-27T18:19:10.334Z,100600.34
2023-04-27T18:21:39.440Z,100613.50
2023-04-27T18:24:07.607Z,100607.94
2023-04-27T18:26:35.554Z,100607.63
2023-04-27T18:29:03.033Z,100611.34
2023-04-27T18:31:30.754Z,100618.22
2023-04-27T18:33:59.175Z,100616.22
2023-04-27T18:36:26.903Z,100615.88
2023-04-27T18:38:55.843Z,100621.41
2023-04-27T18:41:23.569Z,100615.94
2023-04-27T18:43:50.982Z,100616.13
2023-04-27T18:46:18.771Z,100625.16
2023-04-27T18:48:46.219Z,100635.06
2023-04-27T18:51:13.924Z,100633.13
2023-04-27T18:53:41.374Z,100634.38
2023-04-27T18:56:10.697Z,100636.88
2023-04-27T18:58:38.091Z,100645.47
2023-04-27T19:01:06.001Z,100642.63
2023-04-27T19:03:33.645Z,100647.41
2023-04-27T19:06:01.646Z,100638.84
2023-04-27T19:08:29.129Z,100649.16
2023-04-27T19:10:58.456Z,100646.72
2023-04-27T19:13:27.492Z,100657.09
2023-04-27T19:15:55.138Z,100642.09
2023-04-27T19:18:22.593Z,100647.16
2023-04-27T19:20:50.517Z,100649.06
2023-04-27T19:23:18.033Z,100648.78
2023-04-27T19:25:45.923Z,100653.09
2023-04-27T19:28:13.661Z,100655.47
2023-04-27T19:30:42.976Z,100657.63
2023-04-27T19:33:10.487Z,100652.19
2023-04-27T19:35:38.257Z,100658.56
2023-04-27T19:38:05.701Z,100655.72
2023-04-27T19:40:33.434Z,100653.47
2023-04-27T19:43:00.906Z,100653.16
2023-04-27T19:45:28.674Z,100657.97
2023-04-27T19:47:57.733Z,100660.56
2023-04-27T19:50:25.560Z,100655.34
2023-04-27T19:52:53.137Z,100657.19
2023-04-27T19:55:21.081Z,100657.28
2023-04-27T19:57:48.472Z,100657.56
2023-04-27T20:00:16.725Z,100656.72
2023-04-27T20:02:44.395Z,100654.16
2023-04-27T20:05:14.000Z,100661.09
2023-04-27T20:07:41.510Z,100654.91
2023-04-27T20:10:09.397Z,100657.00
2023-04-27T20:12:52.054Z,100659.25
2023-04-27T20:15:23.951Z,100657.88
2023-04-27T20:17:51.399Z,100662.22
2023-04-27T20:20:20.749Z,100661.13
2023-04-27T20:22:48.190Z,100661.53
2023-04-27T20:25:15.984Z,100660.00
2023-04-27T20:27:43.364Z,100661.09
2023-04-27T20:30:11.883Z,100658.84
2023-04-27T20:32:39.322Z,100660.41
2023-04-27T20:35:07.662Z,100655.59
2023-04-27T20:37:36.467Z,100655.59
2023-04-27T20:40:04.792Z,100663.06
2023-04-27T20:42:32.340Z,100665.91
2023-04-27T20:45:00.232Z,100661.34
2023-04-27T20:47:27.655Z,100656.13
2023-04-27T20:49:55.351Z,100651.50
2023-04-27T20:52:22.729Z,100649.50
2023-04-27T20:54:51.859Z,100647.94
2023-04-27T20:57:19.302Z,100649.06
2023-04-27T20:59:47.118Z,100645.63
2023-04-27T21:02:14.525Z,100654.19
2023-04-27T21:04:42.557Z,100650.28
2023-04-27T21:07:10.182Z,100658.50
2023-04-27T21:09:37.940Z,100659.69
2023-04-27T21:12:06.894Z,100650.44
2023-04-27T21:14:34.729Z,100649.31
2023-04-27T21:17:02.152Z,100651.00
2023-04-27T21:19:29.840Z,100647.75
2023-04-27T21:21:57.353Z,100644.19
2023-04-27T21:24:25.212Z,100642.13
2023-04-27T21:26:52.797Z,100645.75
2023-04-27T21:29:21.989Z,100644.91
2023-04-27T21:31:49.306Z,100648.47
2023-04-27T21:34:17.245Z,100647.50
2023-04-27T21:36:44.790Z,100654.84
2023-04-27T21:39:12.623Z,100650.34
2023-04-27T21:41:39.939Z,100650.84
2023-04-27T21:44:07.560Z,100650.03
2023-04-27T21:46:36.657Z,100656.34
2023-04-27T21:49:04.538Z,100657.38
2023-04-27T21:51:31.889Z,100655.72
2023-04-27T21:53:59.643Z,100655.09
2023-04-27T21:56:26.902Z,100655.34
2023-04-27T21:58:54.773Z,100648.09
2023-04-27T22:01:22.292Z,100651.03
2023-04-27T22:03:51.537Z,100646.94
2023-04-27T22:06:18.983Z,100650.91
2023-04-27T22:08:46.871Z,100654.56
2023-04-27T22:11:14.243Z,100649.50
2023-04-27T22:13:42.039Z,100645.88
2023-04-27T22:16:10.226Z,100653.25
2023-04-27T22:18:39.446Z,100654.94
2023-04-27T22:21:08.252Z,100649.38
2023-04-27T22:23:36.374Z,100646.38
2023-04-27T22:26:03.951Z,100642.34
2023-04-27T22:28:31.676Z,100641.38
2023-04-27T22:31:00.180Z,100649.16
2023-04-27T22:33:28.020Z,100649.75
2023-04-27T22:35:55.291Z,100647.22
2023-04-27T22:38:24.597Z,100653.75
2023-04-27T22:40:51.818Z,100656.16
2023-04-27T22:43:19.573Z,100649.38
2023-04-27T22:45:46.943Z,100650.00
2023-04-27T22:48:14.660Z,100653.50
2023-04-27T22:50:42.063Z,100649.03
2023-04-27T22:53:09.715Z,100656.28
2023-04-27T22:55:38.524Z,100653.38
2023-04-27T22:58:06.341Z,100657.16
2023-04-27T23:00:33.765Z,100648.03
2023-04-27T23:03:01.664Z,100644.72
2023-04-27T23:05:29.227Z,100642.34
2023-04-27T23:07:56.886Z,100638.84
2023-04-27T23:10:24.455Z,100638.13
2023-04-27T23:12:53.527Z,100640.31
2023-04-27T23:15:20.971Z,100639.34
2023-04-27T23:17:48.733Z,100631.69
2023-04-27T23:20:27.221Z,100634.94
2023-04-27T23:22:55.712Z,100630.00
2023-04-27T23:25:23.179Z,100633.19
2023-04-27T23:27:52.530Z,100629.88
2023-04-27T23:30:22.278Z,100634.50
2023-04-27T23:32:50.044Z,100641.03
2023-04-27T23:35:17.832Z,100640.28
2023-04-27T23:37:45.553Z,100643.22
2023-04-27T23:40:12.972Z,100638.84
2023-04-27T23:42:40.698Z,100641.88
2023-04-27T23:45:08.789Z,100638.00
2023-04-27T23:47:37.918Z,100635.44
2023-04-27T23:50:06.290Z,100629.25
2023-04-27T23:52:33.988Z,100625.72
2023-04-27T23:55:01.328Z,100630.69
2023-04-27T23:57:29.045Z,100623.78
2023-04-27T23:59:56.309Z,100626.19
